createdAt,value
2023-03-12T00:01:30.387Z,101509.34
2023-03-12T00:03:58.114Z,101498.13
2023-03-12T00:06:30.496Z,101499.25
2023-03-12T00:09:02.350Z,101502.03
2023-03-12T00:11:30.620Z,101496.44
2023-03-12T00:14:00.288Z,101505.69
2023-03-12T00:16:29.664Z,101507.91
2023-03-12T00:18:56.902Z,101498.66
2023-03-12T00:21:25.813Z,101505.38
2023-03-12T00:23:53.922Z,101508.19
2023-03-12T00:26:22.940Z,101506.50
2023-03-12T00:28:51.124Z,101512.94
2023-03-12T00:31:18.810Z,101512.94
2023-03-12T00:33:52.893Z,101512.09
2023-03-12T00:36:25.200Z,101518.81
2023-03-12T00:38:53.740Z,101525.47
2023-03-12T00:41:22.403Z,101522.69
2023-03-12T00:43:54.737Z,101531.09
2023-03-12T00:46:22.849Z,101537.81
2023-03-12T00:48:51.000Z,101533.31
2023-03-12T00:51:24.611Z,101534.16
2023-03-12T00:54:01.661Z,101531.34
2023-03-12T00:56:30.844Z,101533.31
2023-03-12T00:58:58.789Z,101537.22
2023-03-12T01:01:31.033Z,101543.66
2023-03-12T01:04:00.061Z,101547.84
2023-03-12T01:06:27.929Z,101548.69
2023-03-12T01:08:55.725Z,101548.69
2023-03-12T01:11:23.301Z,101554.59
2023-03-12T01:13:50.441Z,101552.06
2023-03-12T01:16:24.045Z,101558.50
2023-03-12T01:18:52.585Z,101557.66
2023-03-12T01:21:22.780Z,101555.97
2023-03-12T01:23:53.298Z,101559.88
2023-03-12T01:26:23.885Z,101560.13
2023-03-12T01:28:58.648Z,101565.75
2023-03-12T01:31:28.886Z,101568.53
2023-03-12T01:33:57.137Z,101566.84
2023-03-12T01:36:28.201Z,101562.34
2023-03-12T01:39:02.306Z,101557.88
2023-03-12T01:41:39.621Z,101550.81
2023-03-12T01:44:16.859Z,101548.88
2023-03-12T01:46:48.176Z,101548.03
2023-03-12T01:49:33.287Z,101542.44
2023-03-12T01:52:07.677Z,101533.44
2023-03-12T01:55:14.582Z,101532.59
2023-03-12T01:57:59.659Z,101528.34
2023-03-12T02:00:41.580Z,101529.22
2023-03-12T02:03:13.783Z,101529.22
2023-03-12T02:06:04.543Z,101525.84
2023-03-12T02:08:31.904Z,101524.16
2023-03-12T02:10:59.524Z,101530.88
2023-03-12T02:13:38.067Z,101536.47
2023-03-12T02:16:11.488Z,101523.84
2023-03-12T02:18:42.502Z,101535.03
2023-03-12T02:21:17.284Z,101534.19
2023-03-12T02:24:30.664Z,101530.56
2023-03-12T02:27:01.128Z,101532.50
2023-03-12T02:29:31.453Z,101533.63
2023-03-12T02:32:02.833Z,101529.97
2023-03-12T02:34:30.909Z,101542.28
2023-03-12T02:36:59.251Z,101533.88
2023-03-12T02:39:30.910Z,101525.72
2023-03-12T02:42:01.188Z,101526.59
2023-03-12T02:44:33.696Z,101529.66
2023-03-12T02:47:05.054Z,101543.66
2023-03-12T02:49:35.223Z,101538.03
2023-03-12T02:52:04.851Z,101537.47
2023-03-12T02:54:35.932Z,101517.28
2023-03-12T02:57:06.286Z,101517.28
2023-03-12T02:59:35.092Z,101519.81
2023-03-12T03:02:07.276Z,101517.28
2023-03-12T03:04:36.024Z,101514.47
2023-03-12T03:07:04.465Z,101509.97
2023-03-12T03:09:34.390Z,101508.28
2023-03-12T03:12:08.704Z,101508.59
2023-03-12T03:14:53.265Z,101510.53
2023-03-12T03:17:23.743Z,101504.94
2023-03-12T03:19:58.844Z,101509.69
2023-03-12T03:22:26.323Z,101508.59
2023-03-12T03:24:54.258Z,101506.88
2023-03-12T03:27:22.591Z,101515.28
2023-03-12T03:29:58.327Z,101511.06
2023-03-12T03:32:28.956Z,101516.66
2023-03-12T03:34:57.193Z,101514.97
2023-03-12T03:37:28.405Z,101520.56
2023-03-12T03:39:57.323Z,101526.16
2023-03-12T03:42:24.729Z,101540.44
2023-03-12T03:44:53.907Z,101530.34
2023-03-12T03:47:23.563Z,101532.28
2023-03-12T03:49:51.336Z,101532.28
2023-03-12T03:52:19.783Z,101534.25
2023-03-12T03:54:53.708Z,101528.91
2023-03-12T03:57:22.408Z,101526.09
2023-03-12T03:59:52.141Z,101527.22
2023-03-12T04:02:21.643Z,101531.13
2023-03-12T04:04:52.562Z,101535.88
2023-03-12T04:07:23.049Z,101535.03
2023-03-12T04:09:53.464Z,101534.19
2023-03-12T04:15:12.998Z,101535.53
2023-03-12T04:17:40.870Z,101529.09
2023-03-12T04:20:12.177Z,101531.91
2023-03-12T04:22:44.276Z,101534.13
2023-03-12T04:25:12.220Z,101534.13
2023-03-12T04:27:40.923Z,101541.69
2023-03-12T04:30:10.608Z,101543.38
2023-03-12T04:32:39.821Z,101534.41
2023-03-12T04:35:10.144Z,101534.41
2023-03-12T04:37:39.019Z,101539.16
2023-03-12T04:40:22.123Z,101539.41
2023-03-12T04:42:50.918Z,101537.47
2023-03-12T04:45:20.777Z,101542.22
2023-03-12T04:47:49.311Z,101542.22
2023-03-12T04:50:20.724Z,101553.41
2023-03-12T04:52:52.443Z,101565.72
2023-03-12T04:55:20.735Z,101557.31
2023-03-12T04:57:48.406Z,101552.81
2023-03-12T05:00:20.032Z,101546.38
2023-03-12T05:02:50.027Z,101557.56
2023-03-12T05:05:17.793Z,101550.88
2023-03-12T05:07:46.576Z,101556.72
2023-03-12T05:10:14.597Z,101553.94
2023-03-12T05:12:43.390Z,101553.09
2023-03-12T05:15:12.263Z,101565.13
2023-03-12T05:17:41.101Z,101574.63
2023-03-12T05:20:10.482Z,101577.44
2023-03-12T05:22:38.503Z,101577.69
2023-03-12T05:25:06.669Z,101578.53
2023-03-12T05:27:35.444Z,101580.47
2023-03-12T05:30:05.877Z,101584.13
2023-03-12T05:32:34.910Z,101583.28
2023-03-12T05:35:03.793Z,101583.28
2023-03-12T05:37:32.411Z,101581.59
2023-03-12T05:40:00.895Z,101586.09
2023-03-12T05:42:31.253Z,101588.03
2023-03-12T05:45:01.406Z,101600.34
2023-03-12T05:47:32.125Z,101596.44
2023-03-12T05:50:05.144Z,101618.81
2023-03-12T05:52:36.476Z,101618.81
2023-03-12T05:55:05.905Z,101624.41
2023-03-12T05:57:33.608Z,101623.56
2023-03-12T06:00:05.226Z,101618.22
2023-03-12T06:02:44.188Z,101618.22
2023-03-12T06:05:12.853Z,101624.94
2023-03-12T06:07:42.445Z,101622.97
2023-03-12T06:10:14.517Z,101629.69
2023-03-12T06:12:50.142Z,101624.34
2023-03-12T06:15:22.072Z,101618.75
2023-03-12T06:17:58.937Z,101616.19
2023-03-12T06:20:27.748Z,101621.81
2023-03-12T06:22:56.367Z,101623.50
2023-03-12T06:25:24.652Z,101622.66
2023-03-12T06:27:55.044Z,101625.19
2023-03-12T06:30:22.625Z,101629.94
2023-03-12T06:32:50.437Z,101626.03
2023-03-12T06:35:20.044Z,101631.38
2023-03-12T06:37:47.216Z,101634.75
2023-03-12T06:40:14.643Z,101638.16
2023-03-12T06:42:43.595Z,101642.41
2023-03-12T06:45:11.599Z,101641.88
2023-03-12T06:47:38.901Z,101655.91
2023-03-12T06:50:10.104Z,101657.34
2023-03-12T06:52:41.094Z,101652.94
2023-03-12T06:55:08.402Z,101661.09
2023-03-12T06:57:36.736Z,101663.97
2023-03-12T07:00:06.214Z,101650.28
2023-03-12T07:02:34.752Z,101655.59
2023-03-12T07:05:02.470Z,101651.75
2023-03-12T07:07:30.645Z,101654.13
2023-03-12T07:10:00.366Z,101658.13
2023-03-12T07:12:27.946Z,101658.78
2023-03-12T07:14:55.694Z,101665.00
2023-03-12T07:17:27.298Z,101675.19
2023-03-12T07:19:55.016Z,101670.69
2023-03-12T07:22:28.708Z,101677.69
2023-03-12T07:24:58.796Z,101675.94
2023-03-12T07:27:26.429Z,101670.59
2023-03-12T07:29:56.216Z,101670.88
2023-03-12T07:32:23.965Z,101694.13
2023-03-12T07:34:54.066Z,101696.34
2023-03-12T07:37:21.845Z,101707.56
2023-03-12T07:39:53.809Z,101699.44
2023-03-12T07:42:27.650Z,101701.38
2023-03-12T07:45:00.143Z,101703.34
2023-03-12T07:47:36.424Z,101705.31
2023-03-12T07:50:05.268Z,101711.16
2023-03-12T07:52:33.848Z,101711.75
2023-03-12T07:55:02.984Z,101711.75
2023-03-12T07:57:31.638Z,101709.78
2023-03-12T07:59:59.019Z,101701.38
2023-03-12T08:02:27.777Z,101698.34
2023-03-12T08:04:56.522Z,101700.28
2023-03-12T08:07:26.096Z,101696.09
2023-03-12T08:09:54.203Z,101683.78
2023-03-12T08:12:23.710Z,101668.66
2023-03-12T08:14:52.830Z,101671.19
2023-03-12T08:17:20.660Z,101674.63
2023-03-12T08:19:48.598Z,101679.97
2023-03-12T08:22:20.822Z,101685.88
2023-03-12T08:24:48.765Z,101687.31
2023-03-12T08:27:18.665Z,101687.06
2023-03-12T08:29:48.696Z,101693.22
2023-03-12T08:32:20.786Z,101688.19
2023-03-12T08:34:49.345Z,101693.28
2023-03-12T08:37:18.169Z,101692.19
2023-03-12T08:39:45.920Z,101697.25
2023-03-12T08:42:15.152Z,101702.59
2023-03-12T08:44:45.446Z,101704.03
2023-03-12T08:47:13.154Z,101700.13
2023-03-12T08:49:43.693Z,101697.91
2023-03-12T08:52:14.968Z,101697.34
2023-03-12T08:54:50.907Z,101689.53
2023-03-12T08:57:21.877Z,101694.59
2023-03-12T08:59:53.611Z,101701.38
2023-03-12T09:02:24.229Z,101705.63
2023-03-12T09:04:53.393Z,101711.53
2023-03-12T09:07:23.255Z,101708.19
2023-03-12T09:09:55.056Z,101712.94
2023-03-12T09:12:23.337Z,101718.03
2023-03-12T09:15:03.405Z,101719.47
2023-03-12T09:17:33.377Z,101724.53
2023-03-12T09:20:06.562Z,101711.94
2023-03-12T09:22:37.563Z,101717.88
2023-03-12T09:25:09.269Z,101715.63
2023-03-12T09:27:41.686Z,101711.19
2023-03-12T09:30:12.142Z,101714.88
2023-03-12T09:32:46.045Z,101705.94
2023-03-12T09:35:16.195Z,101700.94
2023-03-12T09:37:44.261Z,101705.16
2023-03-12T09:40:20.250Z,101705.47
2023-03-12T09:42:52.489Z,101702.13
2023-03-12T14:35:32.393Z,101451.75
